createdAt,value
2019-02-16T00:00:09.379Z,84.28
2019-02-16T00:01:09.605Z,84.50
2019-02-16T00:02:09.831Z,84.28
2019-02-16T00:03:10.104Z,84.81
2019-02-16T00:04:10.293Z,84.50
2019-02-16T00:05:11.383Z,84.91
2019-02-16T00:06:10.744Z,84.81
2019-02-16T00:07:11.072Z,85.43
2019-02-16T00:08:12.384Z,84.74
2019-02-16T00:09:11.876Z,85.89
2019-02-16T00:10:12.378Z,85.89
2019-02-16T00:11:11.880Z,85.78
2019-02-16T00:12:12.878Z,86.79
2019-02-16T00:13:12.383Z,86.79
2019-02-16T00:14:12.590Z,86.83
2019-02-16T00:15:12.877Z,87.45
2019-02-16T00:16:13.026Z,87.97
2019-02-16T00:17:13.281Z,88.08
2019-02-16T00:18:13.880Z,88.29
2019-02-16T00:19:13.759Z,88.29
2019-02-16T00:20:13.989Z,88.39
2019-02-16T00:21:14.378Z,88.60
2019-02-16T00:22:14.438Z,88.29
2019-02-16T00:23:14.733Z,88.49
2019-02-16T00:24:14.908Z,88.29
2019-02-16T00:25:15.137Z,88.39
2019-02-16T00:26:15.379Z,88.08
2019-02-16T00:27:15.597Z,88.49
2019-02-16T00:28:15.847Z,88.60
2019-02-16T00:29:16.056Z,88.85
2019-02-16T00:30:16.303Z,89.32
2019-02-16T00:31:16.561Z,89.43
2019-02-16T00:32:16.887Z,88.91
2019-02-16T00:33:17.006Z,88.49
2019-02-16T00:34:17.224Z,88.18
2019-02-16T00:35:17.454Z,87.87
2019-02-16T00:36:17.702Z,88.29
2019-02-16T00:37:17.919Z,87.87
2019-02-16T00:38:18.173Z,87.76
2019-02-16T00:39:18.365Z,87.66
2019-02-16T00:40:18.673Z,87.76
2019-02-16T00:41:18.867Z,87.76
2019-02-16T00:42:19.078Z,88.08
2019-02-16T00:43:19.338Z,87.66
2019-02-16T00:44:19.526Z,87.60
2019-02-16T00:45:19.762Z,87.91
2019-02-16T00:46:20.018Z,88.22
2019-02-16T00:47:20.231Z,88.18
2019-02-16T00:48:20.560Z,87.76
2019-02-16T00:49:20.662Z,87.87
2019-02-16T00:50:20.910Z,87.55
2019-02-16T00:51:21.171Z,87.55
2019-02-16T00:52:21.389Z,87.24
2019-02-16T00:53:21.641Z,87.24
2019-02-16T00:54:21.844Z,87.35
2019-02-16T00:55:22.054Z,87.55
2019-02-16T00:56:22.345Z,87.45
2019-02-16T00:57:22.880Z,87.66
2019-02-16T00:58:22.780Z,87.55
2019-02-16T00:59:22.982Z,87.66
2019-02-16T01:00:23.207Z,87.66
2019-02-16T01:01:23.441Z,87.14
2019-02-16T01:02:23.675Z,87.28
2019-02-16T01:03:23.956Z,87.81
2019-02-16T01:04:24.181Z,88.01
2019-02-16T01:05:24.481Z,87.95
2019-02-16T01:06:24.634Z,88.37
2019-02-16T01:07:24.827Z,88.47
2019-02-16T01:08:25.106Z,88.57
2019-02-16T01:09:25.287Z,88.68
2019-02-16T01:10:25.532Z,88.68
2019-02-16T01:11:25.785Z,88.26
2019-02-16T01:12:26.005Z,88.47
2019-02-16T01:13:26.309Z,88.51
2019-02-16T01:14:26.451Z,88.37
2019-02-16T01:15:26.687Z,88.16
2019-02-16T01:16:26.940Z,88.30
2019-02-16T01:17:27.128Z,88.20
2019-02-16T01:18:27.377Z,88.62
2019-02-16T01:19:27.607Z,88.30
2019-02-16T01:20:27.847Z,88.20
2019-02-16T01:21:28.229Z,88.09
2019-02-16T01:22:28.299Z,88.20
2019-02-16T01:23:28.554Z,88.20
2019-02-16T01:24:29.018Z,88.45
2019-02-16T01:25:28.998Z,88.62
2019-02-16T01:26:29.245Z,88.51
2019-02-16T01:27:29.458Z,88.55
2019-02-16T01:28:29.706Z,88.41
2019-02-16T01:29:29.959Z,88.41
2019-02-16T01:30:30.132Z,88.55
2019-02-16T01:31:30.382Z,88.65
2019-02-16T01:32:30.595Z,88.55
2019-02-16T01:33:30.843Z,88.34
2019-02-16T01:34:31.058Z,88.34
2019-02-16T01:35:31.274Z,88.65
2019-02-16T01:36:31.525Z,88.45
2019-02-16T01:37:31.806Z,88.76
2019-02-16T01:38:31.961Z,88.76
2019-02-16T01:39:32.208Z,88.87
2019-02-16T01:40:32.410Z,88.45
2019-02-16T01:41:32.676Z,88.76
2019-02-16T01:42:32.903Z,89.18
2019-02-16T01:43:33.148Z,88.90
2019-02-16T01:44:33.380Z,89.18
2019-02-16T01:45:33.638Z,89.64
2019-02-16T01:46:33.894Z,89.84
2019-02-16T01:47:34.058Z,89.43
2019-02-16T01:48:34.298Z,89.32
2019-02-16T01:49:34.537Z,89.84
2019-02-16T01:50:34.751Z,89.81
2019-02-16T01:51:35.000Z,89.84
2019-02-16T01:52:35.196Z,89.32
2019-02-16T01:53:35.451Z,89.74
2019-02-16T01:54:35.804Z,89.84
2019-02-16T01:55:35.896Z,89.74
2019-02-16T01:56:36.129Z,89.64
2019-02-16T01:57:36.352Z,89.64
2019-02-16T01:58:36.604Z,89.95
2019-02-16T01:59:36.845Z,90.06
2019-02-16T02:00:37.057Z,89.53
2019-02-16T02:01:37.312Z,89.64
2019-02-16T02:02:37.584Z,89.47
2019-02-16T02:03:37.758Z,89.58
2019-02-16T02:04:38.002Z,89.89
2019-02-16T02:05:38.201Z,90.09
2019-02-16T02:06:38.453Z,90.31
2019-02-16T02:07:38.659Z,90.09
2019-02-16T02:08:38.874Z,90.20
2019-02-16T02:09:39.144Z,90.72
2019-02-16T02:10:39.402Z,90.72
2019-02-16T02:11:39.582Z,90.09
2019-02-16T02:12:39.799Z,90.09
2019-02-16T02:13:40.048Z,90.52
2019-02-16T02:14:40.263Z,90.20
2019-02-16T02:15:40.490Z,91.03
2019-02-16T02:16:40.715Z,90.97
2019-02-16T02:17:40.946Z,90.93
2019-02-16T02:18:41.247Z,90.97
2019-02-16T02:19:41.422Z,90.56
2019-02-16T02:20:41.634Z,91.08
2019-02-16T02:21:41.878Z,91.39
2019-02-16T02:22:42.126Z,91.71
2019-02-16T02:23:42.356Z,91.50
2019-02-16T02:24:42.618Z,91.43
2019-02-16T02:25:42.815Z,91.81
2019-02-16T02:26:43.044Z,91.75
2019-02-16T02:27:43.394Z,91.33
2019-02-16T02:28:43.534Z,91.33
2019-02-16T02:29:43.768Z,91.54
2019-02-16T02:30:43.966Z,91.85
2019-02-16T02:31:44.202Z,91.75
2019-02-16T02:32:44.463Z,91.96
2019-02-16T02:33:44.714Z,91.96
2019-02-16T02:34:45.389Z,91.96
2019-02-16T02:35:45.229Z,91.85
2019-02-16T02:36:45.361Z,92.48
2019-02-16T02:37:45.621Z,92.58
2019-02-16T02:38:45.846Z,92.38
2019-02-16T02:39:46.111Z,92.38
2019-02-16T02:40:46.307Z,92.48
2019-02-16T02:41:46.531Z,92.44
2019-02-16T02:42:46.782Z,92.38
2019-02-16T02:43:47.126Z,92.38
2019-02-16T02:44:47.252Z,92.38
2019-02-16T02:45:47.469Z,92.27
2019-02-16T02:46:47.692Z,92.16
2019-02-16T02:47:47.935Z,92.69
2019-02-16T02:48:48.154Z,92.38
2019-02-16T02:49:48.441Z,92.48
2019-02-16T02:50:48.639Z,92.27
2019-02-16T02:51:52.319Z,92.38
2019-02-16T02:52:49.087Z,92.27
2019-02-16T02:53:49.294Z,92.79
2019-02-16T02:54:49.567Z,92.48
2019-02-16T02:55:49.757Z,92.58
2019-02-16T02:56:49.997Z,92.48
2019-02-16T02:57:50.252Z,92.42
2019-02-16T02:58:50.470Z,92.48
2019-02-16T02:59:50.757Z,92.42
2019-02-16T03:00:50.970Z,92.73
2019-02-16T03:01:51.160Z,93.26
2019-02-16T03:02:51.636Z,92.73
2019-02-16T03:03:51.618Z,93.01
2019-02-16T03:04:51.877Z,92.63
2019-02-16T03:05:52.061Z,93.01
2019-02-16T03:06:52.308Z,91.79
2019-02-16T03:07:52.574Z,92.90
2019-02-16T03:08:52.891Z,92.48
2019-02-16T03:09:53.009Z,92.38
2019-02-16T03:10:53.236Z,92.63
2019-02-16T03:11:53.476Z,92.63
2019-02-16T03:12:53.718Z,92.48
2019-02-16T03:13:54.090Z,92.63
2019-02-16T03:14:54.190Z,92.42
2019-02-16T03:15:54.376Z,92.73
2019-02-16T03:16:54.759Z,92.83
2019-02-16T03:17:54.875Z,92.94
2019-02-16T03:18:55.095Z,92.63
2019-02-16T03:19:55.351Z,92.00
2019-02-16T03:20:55.536Z,93.04
2019-02-16T03:22:02.526Z,92.42
2019-02-16T03:22:57.037Z,92.88
2019-02-16T03:23:56.259Z,92.57
2019-02-16T03:24:56.555Z,93.08
2019-02-16T03:25:56.703Z,92.98
2019-02-16T03:26:56.919Z,93.51
2019-02-16T03:27:57.187Z,93.40
2019-02-16T03:28:57.397Z,93.51
2019-02-16T03:29:57.640Z,93.40
2019-02-16T03:30:57.877Z,93.51
2019-02-16T03:31:58.115Z,93.08
2019-02-16T03:32:58.417Z,93.61
2019-02-16T03:33:58.554Z,93.51
2019-02-16T03:34:58.791Z,93.40
2019-02-16T03:35:59.029Z,93.61
2019-02-16T03:36:59.246Z,93.40
2019-02-16T03:37:59.496Z,93.40
2019-02-16T03:38:59.698Z,93.61
2019-02-16T03:39:59.980Z,93.65
2019-02-16T03:41:00.233Z,93.51
2019-02-16T03:42:00.464Z,93.30
2019-02-16T03:43:00.654Z,93.44
2019-02-16T03:44:00.850Z,93.61
2019-02-16T03:45:01.119Z,94.38
2019-02-16T03:46:01.343Z,94.81
2019-02-16T03:47:01.553Z,94.38
2019-02-16T03:48:01.801Z,94.38
2019-02-16T03:49:02.024Z,94.60
2019-02-16T03:50:02.551Z,94.49
2019-02-16T03:51:02.498Z,94.81
2019-02-16T03:52:12.687Z,94.81
2019-02-16T03:53:03.954Z,94.81
2019-02-16T03:54:03.161Z,94.18
2019-02-16T03:55:03.394Z,94.70
2019-02-16T03:56:03.644Z,94.38
2019-02-16T03:57:03.865Z,95.01
2019-02-16T03:58:04.221Z,94.91
2019-02-16T03:59:04.316Z,94.91
2019-02-16T04:00:04.550Z,95.33
2019-02-16T04:01:04.794Z,94.81
2019-02-16T04:02:05.007Z,95.01
2019-02-16T04:03:05.255Z,94.70
2019-02-16T04:04:05.474Z,95.43
2019-02-16T04:05:05.719Z,95.17
2019-02-16T04:06:05.958Z,95.27
2019-02-16T04:07:06.140Z,94.81
2019-02-16T04:08:06.397Z,94.49
2019-02-16T04:09:06.609Z,94.91
2019-02-16T04:10:06.859Z,94.49
2019-02-16T04:11:07.093Z,94.81
2019-02-16T04:12:07.365Z,95.23
2019-02-16T04:13:07.546Z,95.01
2019-02-16T04:14:07.844Z,95.01
2019-02-16T04:15:08.014Z,94.60
2019-02-16T04:16:08.232Z,95.01
2019-02-16T04:17:08.424Z,94.70
2019-02-16T04:18:08.674Z,94.38
2019-02-16T04:19:08.903Z,94.81
2019-02-16T04:20:09.179Z,94.70
2019-02-16T04:21:09.380Z,94.38
2019-02-16T04:22:09.614Z,94.60
2019-02-16T04:23:09.896Z,94.87
2019-02-16T04:24:10.061Z,95.18
2019-02-16T04:25:10.301Z,94.49
2019-02-16T04:26:10.536Z,94.49
2019-02-16T04:27:10.742Z,94.66
2019-02-16T04:28:10.976Z,94.56
2019-02-16T04:29:11.187Z,94.81
2019-02-16T04:30:11.467Z,94.60
2019-02-16T04:31:11.820Z,94.38
2019-02-16T04:32:11.923Z,94.18
2019-02-16T04:33:12.140Z,94.18
2019-02-16T04:34:12.384Z,94.38
2019-02-16T04:35:12.938Z,94.38
2019-02-16T04:36:12.890Z,94.81
2019-02-16T04:37:13.099Z,94.60
2019-02-16T04:38:13.333Z,94.87
2019-02-16T04:39:13.653Z,94.91
2019-02-16T04:40:13.826Z,95.01
2019-02-16T04:41:14.284Z,94.81
2019-02-16T04:42:14.268Z,94.49
2019-02-16T04:43:14.494Z,94.38
2019-02-16T04:44:14.740Z,94.70
2019-02-16T04:45:14.947Z,94.07
2019-02-16T04:46:15.188Z,94.70
2019-02-16T04:47:15.468Z,94.60
2019-02-16T04:48:15.627Z,94.38
2019-02-16T04:49:15.897Z,94.60
2019-02-16T04:50:16.420Z,94.70
2019-02-16T04:51:16.335Z,94.38
2019-02-16T04:52:16.534Z,94.28
2019-02-16T04:53:16.778Z,94.49
2019-02-16T04:54:17.029Z,94.38
2019-02-16T04:55:17.275Z,94.49
2019-02-16T04:56:17.561Z,94.49
2019-02-16T04:57:17.719Z,94.38
2019-02-16T04:58:17.969Z,94.32
2019-02-16T04:59:18.213Z,94.49
2019-02-16T05:00:18.475Z,94.38
2019-02-16T05:01:18.681Z,94.60
2019-02-16T05:02:18.887Z,94.70
2019-02-16T05:03:19.129Z,94.91
2019-02-16T05:04:19.492Z,94.64
2019-02-16T05:05:19.581Z,95.01
2019-02-16T05:06:19.846Z,94.81
2019-02-16T05:07:20.041Z,94.81
2019-02-16T05:08:20.271Z,95.17
2019-02-16T05:09:20.522Z,94.95
2019-02-16T05:10:20.732Z,94.64
2019-02-16T05:11:20.983Z,95.06
2019-02-16T05:12:21.286Z,95.06
2019-02-16T05:13:21.398Z,95.58
2019-02-16T05:14:21.667Z,95.06
2019-02-16T05:15:21.885Z,95.06
2019-02-16T05:16:22.140Z,94.64
2019-02-16T05:17:22.350Z,95.06
2019-02-16T05:18:22.579Z,94.85
2019-02-16T05:19:22.814Z,95.17
2019-02-16T05:20:23.106Z,95.90
2019-02-16T05:21:23.287Z,94.74
2019-02-16T05:22:23.480Z,95.06
2019-02-16T05:23:23.743Z,95.58
2019-02-16T05:24:23.953Z,95.27
2019-02-16T05:25:24.163Z,94.68
2019-02-16T05:26:24.531Z,95.27
2019-02-16T05:27:24.640Z,94.79
2019-02-16T05:28:24.921Z,94.95
2019-02-16T05:29:25.102Z,95.48
2019-02-16T05:30:25.304Z,95.48
2019-02-16T05:31:25.579Z,96.00
2019-02-16T05:32:25.808Z,94.95
2019-02-16T05:33:26.027Z,95.90
2019-02-16T05:34:26.280Z,95.58
2019-02-16T05:35:26.489Z,95.27
2019-02-16T05:36:26.769Z,95.37
2019-02-16T05:37:27.010Z,95.37
2019-02-16T05:38:27.210Z,95.37
2019-02-16T05:39:27.457Z,95.37
2019-02-16T05:40:27.667Z,96.00
2019-02-16T05:41:27.899Z,94.85
2019-02-16T05:42:28.132Z,94.49
2019-02-16T05:43:28.392Z,94.95
2019-02-16T05:44:28.641Z,95.17
2019-02-16T05:45:28.970Z,94.95
2019-02-16T05:46:29.057Z,94.95
2019-02-16T05:47:29.327Z,94.85
2019-02-16T05:48:29.530Z,94.95
2019-02-16T05:49:29.778Z,95.06
2019-02-16T05:50:29.984Z,94.85
2019-02-16T05:51:30.224Z,94.95
2019-02-16T05:52:30.467Z,94.95
2019-02-16T05:53:30.827Z,95.58
2019-02-16T05:54:30.942Z,95.06
2019-02-16T05:55:31.160Z,94.95
2019-02-16T05:56:31.471Z,95.48
2019-02-16T05:57:31.659Z,95.27
2019-02-16T05:58:31.851Z,95.17
2019-02-16T05:59:32.115Z,95.27
2019-02-16T06:00:32.332Z,94.74
2019-02-16T06:01:32.601Z,94.74
2019-02-16T06:02:32.795Z,94.95
2019-02-16T06:03:32.991Z,94.95
2019-02-16T06:04:33.255Z,94.95
2019-02-16T06:05:33.485Z,94.85
2019-02-16T06:06:33.721Z,94.95
2019-02-16T06:07:33.980Z,94.74
2019-02-16T06:08:34.184Z,94.85
2019-02-16T06:09:34.502Z,95.37
2019-02-16T06:10:34.614Z,95.06
2019-02-16T06:11:34.851Z,95.31
2019-02-16T06:12:35.109Z,95.27
2019-02-16T06:13:35.325Z,96.11
2019-02-16T06:14:35.571Z,95.48
2019-02-16T06:15:35.771Z,95.00
2019-02-16T06:16:36.015Z,95.31
2019-02-16T06:17:36.308Z,95.31
2019-02-16T06:18:36.837Z,95.52
2019-02-16T06:19:36.738Z,95.42
2019-02-16T06:20:36.936Z,95.42
2019-02-16T06:21:37.173Z,95.27
2019-02-16T06:22:37.438Z,95.42
2019-02-16T06:23:37.659Z,95.17
2019-02-16T06:24:37.891Z,95.52
2019-02-16T06:25:38.120Z,95.37
2019-02-16T06:26:38.464Z,95.31
2019-02-16T06:27:38.589Z,95.31
2019-02-16T06:28:38.813Z,95.42
2019-02-16T06:29:39.044Z,95.31
2019-02-16T06:30:39.257Z,95.00
2019-02-16T06:31:39.476Z,96.04
2019-02-16T06:32:39.726Z,95.42
2019-02-16T06:33:39.965Z,95.27
2019-02-16T06:34:40.330Z,95.37
2019-02-16T06:35:40.401Z,95.27
2019-02-16T06:36:40.639Z,95.27
2019-02-16T06:37:40.872Z,94.85
2019-02-16T06:38:41.102Z,94.95
2019-02-16T06:39:41.332Z,95.27
2019-02-16T06:40:41.564Z,95.17
2019-02-16T06:41:41.795Z,94.81
2019-02-16T06:42:42.070Z,94.28
2019-02-16T06:43:42.235Z,93.87
2019-02-16T06:44:42.477Z,93.40
2019-02-16T06:45:42.729Z,93.30
2019-02-16T06:46:42.953Z,93.36
2019-02-16T06:47:43.203Z,92.42
2019-02-16T06:48:43.433Z,91.79
2019-02-16T06:49:43.626Z,91.83
2019-02-16T06:50:43.928Z,92.04
2019-02-16T06:51:44.139Z,92.35
2019-02-16T06:52:44.376Z,92.57
2019-02-16T06:53:44.581Z,92.82
2019-02-16T06:54:44.816Z,92.19
2019-02-16T06:55:45.047Z,92.67
2019-02-16T06:56:45.269Z,92.98
2019-02-16T06:57:45.498Z,93.08
2019-02-16T06:58:45.777Z,92.67
2019-02-16T06:59:46.078Z,92.77
2019-02-16T07:00:46.258Z,92.52
2019-02-16T07:01:46.469Z,92.63
2019-02-16T07:02:46.717Z,92.73
2019-02-16T07:03:46.957Z,92.88
2019-02-16T07:04:47.145Z,92.57
2019-02-16T07:05:47.404Z,93.19
2019-02-16T07:06:47.622Z,93.61
2019-02-16T07:07:47.981Z,93.67
2019-02-16T07:08:48.107Z,92.88
2019-02-16T07:09:48.292Z,93.19
2019-02-16T07:10:48.547Z,93.57
2019-02-16T07:11:48.766Z,92.57
2019-02-16T07:12:49.036Z,92.46
2019-02-16T07:13:49.231Z,93.08
2019-02-16T07:14:49.469Z,93.82
2019-02-16T07:15:49.760Z,93.71
2019-02-16T07:16:49.910Z,93.57
2019-02-16T07:17:50.157Z,92.94
2019-02-16T07:18:50.371Z,93.67
2019-02-16T07:19:50.608Z,93.67
2019-02-16T07:20:50.822Z,93.46
2019-02-16T07:21:51.034Z,93.32
2019-02-16T07:22:51.310Z,93.52
2019-02-16T07:23:51.554Z,92.58
2019-02-16T07:24:51.750Z,92.58
2019-02-16T07:25:51.986Z,92.27
2019-02-16T07:26:52.186Z,92.79
2019-02-16T07:27:52.445Z,92.44
2019-02-16T07:28:52.670Z,92.48
2019-02-16T07:29:52.911Z,92.27
2019-02-16T07:30:53.150Z,92.44
2019-02-16T07:31:53.415Z,92.02
2019-02-16T07:32:53.612Z,92.33
2019-02-16T07:33:53.826Z,92.08
2019-02-16T07:34:54.088Z,91.81
2019-02-16T07:35:54.314Z,91.77
2019-02-16T07:36:54.528Z,91.14
2019-02-16T07:37:54.770Z,91.66
2019-02-16T07:38:54.967Z,90.72
2019-02-16T07:39:55.263Z,90.89
2019-02-16T07:40:55.585Z,90.83
2019-02-16T07:41:57.236Z,90.41
2019-02-16T07:42:55.980Z,90.26
2019-02-16T07:43:56.110Z,90.16
2019-02-16T07:44:56.376Z,90.16
2019-02-16T07:45:56.620Z,90.16
2019-02-16T07:46:56.826Z,89.84
2019-02-16T07:47:57.056Z,90.12
2019-02-16T07:48:57.405Z,89.53
2019-02-16T07:49:57.530Z,89.39
2019-02-16T07:50:57.771Z,89.81
2019-02-16T07:51:57.992Z,89.81
2019-02-16T07:52:58.220Z,89.49
2019-02-16T07:53:58.424Z,89.39
2019-02-16T07:54:58.726Z,89.18
2019-02-16T07:55:58.929Z,88.62
2019-02-16T07:56:59.186Z,88.41
2019-02-16T07:57:59.361Z,88.30
2019-02-16T07:58:59.592Z,87.95
2019-02-16T08:00:00.234Z,87.63
2019-02-16T08:01:00.333Z,87.12
2019-02-16T08:02:00.543Z,87.32
2019-02-16T08:03:00.771Z,87.32
2019-02-16T08:04:01.021Z,87.22
2019-02-16T08:05:01.296Z,87.22
2019-02-16T08:06:01.447Z,87.18
2019-02-16T08:07:01.684Z,86.76
2019-02-16T08:08:01.918Z,86.66
2019-02-16T08:09:02.158Z,86.87
2019-02-16T08:10:02.546Z,86.93
2019-02-16T08:11:02.618Z,86.41
2019-02-16T08:12:02.815Z,86.20
2019-02-16T08:13:03.141Z,85.85
2019-02-16T08:14:03.428Z,85.16
2019-02-16T08:15:03.568Z,85.64
2019-02-16T08:16:03.774Z,85.74
2019-02-16T08:17:03.969Z,84.28
2019-02-16T08:18:04.211Z,84.81
2019-02-16T08:19:04.476Z,84.18
2019-02-16T08:20:04.724Z,83.94
2019-02-16T08:21:04.949Z,83.42
2019-02-16T08:22:05.246Z,83.06
2019-02-16T08:23:05.374Z,82.65
2019-02-16T08:24:05.642Z,82.86
2019-02-16T08:25:05.841Z,82.96
2019-02-16T08:26:06.074Z,82.82
2019-02-16T08:27:06.295Z,82.51
2019-02-16T08:28:06.515Z,82.61
2019-02-16T08:29:06.765Z,82.57
2019-02-16T08:30:07.297Z,82.26
2019-02-16T08:31:07.272Z,82.05
2019-02-16T08:32:07.421Z,82.05
2019-02-16T08:33:07.661Z,86.80
2019-02-16T08:34:07.917Z,84.41
2019-02-16T08:35:08.152Z,82.64
2019-02-16T08:36:08.383Z,81.39
2019-02-16T08:37:08.599Z,81.29
2019-02-16T08:38:08.877Z,81.15
2019-02-16T08:39:09.040Z,80.52
2019-02-16T08:40:09.297Z,80.73
2019-02-16T08:41:09.519Z,80.38
2019-02-16T08:42:09.750Z,79.80
2019-02-16T08:43:09.961Z,79.65
2019-02-16T08:44:10.194Z,80.38
2019-02-16T08:45:10.472Z,80.18
2019-02-16T08:46:10.739Z,79.72
2019-02-16T08:47:10.876Z,79.61
2019-02-16T08:48:11.118Z,78.78
2019-02-16T08:49:11.357Z,78.34
2019-02-16T08:50:11.606Z,78.23
2019-02-16T08:51:11.822Z,77.92
2019-02-16T08:52:12.047Z,77.72
2019-02-16T08:53:12.275Z,77.06
2019-02-16T08:54:12.594Z,77.89
2019-02-16T08:55:12.762Z,75.98
2019-02-16T08:56:12.987Z,75.36
2019-02-16T08:57:13.199Z,76.50
2019-02-16T08:58:13.430Z,76.40
2019-02-16T08:59:13.677Z,75.12
2019-02-16T09:00:13.921Z,75.43
2019-02-16T09:01:14.105Z,76.32
2019-02-16T09:02:14.346Z,74.15
2019-02-16T09:03:14.668Z,73.94
2019-02-16T09:04:14.826Z,73.84
2019-02-16T09:05:15.099Z,73.08
2019-02-16T09:06:15.251Z,72.77
2019-02-16T09:07:15.527Z,73.60
2019-02-16T09:08:15.752Z,73.15
2019-02-16T09:09:15.995Z,72.85
2019-02-16T09:10:16.235Z,73.46
2019-02-16T09:11:16.557Z,72.53
2019-02-16T09:12:16.720Z,72.64
2019-02-16T09:13:16.950Z,73.46
2019-02-16T09:14:17.199Z,72.39
2019-02-16T09:15:17.540Z,69.81
2019-02-16T09:16:17.642Z,69.26
2019-02-16T09:17:17.873Z,69.78
2019-02-16T09:18:18.118Z,69.16
2019-02-16T09:19:18.446Z,68.85
2019-02-16T09:20:18.858Z,67.58
2019-02-16T09:21:18.794Z,68.92
2019-02-16T09:22:19.027Z,69.20
2019-02-16T09:23:19.240Z,69.20
2019-02-16T09:24:19.499Z,67.03
2019-02-16T09:25:19.760Z,66.58
2019-02-16T09:26:19.941Z,66.07
2019-02-16T09:27:20.234Z,65.24
2019-02-16T09:28:20.368Z,64.42
2019-02-16T09:29:20.635Z,64.11
2019-02-16T09:30:20.889Z,63.15
2019-02-16T09:31:21.097Z,64.59
2019-02-16T09:32:21.350Z,63.74
2019-02-16T09:33:21.564Z,62.08
2019-02-16T09:34:21.813Z,61.98
2019-02-16T09:35:22.056Z,61.85
2019-02-16T09:36:22.288Z,61.65
2019-02-16T09:37:22.501Z,61.65
2019-02-16T09:38:22.714Z,61.96
2019-02-16T09:39:23.231Z,62.06
2019-02-16T09:40:23.220Z,61.41
2019-02-16T09:41:23.409Z,61.85
2019-02-16T09:42:23.648Z,60.82
2019-02-16T09:43:23.875Z,61.41
2019-02-16T09:44:24.250Z,61.41
2019-02-16T09:45:24.323Z,61.00
2019-02-16T09:46:24.558Z,59.97
2019-02-16T09:47:24.803Z,59.84
2019-02-16T09:48:25.009Z,59.22
2019-02-16T09:49:25.261Z,59.33
2019-02-16T09:50:25.534Z,59.42
2019-02-16T09:51:25.686Z,59.53
2019-02-16T09:52:26.059Z,59.19
2019-02-16T09:53:26.154Z,59.19
2019-02-16T09:54:26.410Z,58.47
2019-02-16T09:55:26.663Z,59.06
2019-02-16T09:56:26.829Z,58.34
2019-02-16T09:57:27.092Z,57.21
2019-02-16T09:58:27.305Z,57.59
2019-02-16T09:59:27.553Z,56.15
2019-02-16T10:00:27.853Z,56.15
2019-02-16T10:01:27.981Z,56.36
2019-02-16T10:02:28.213Z,56.36
2019-02-16T10:03:28.435Z,56.44
2019-02-16T10:04:28.692Z,55.41
2019-02-16T10:05:28.939Z,54.66
2019-02-16T10:06:29.137Z,54.77
2019-02-16T10:07:30.338Z,54.66
2019-02-16T10:08:29.614Z,53.94
2019-02-16T10:09:29.819Z,54.53
2019-02-16T10:10:30.095Z,53.51
2019-02-16T10:11:30.281Z,53.61
2019-02-16T10:12:30.528Z,53.61
2019-02-16T10:13:30.740Z,53.28
2019-02-16T10:14:30.975Z,53.69
2019-02-16T10:15:31.245Z,53.17
2019-02-16T10:16:31.453Z,53.08
2019-02-16T10:17:31.772Z,52.54
2019-02-16T10:18:31.871Z,53.05
2019-02-16T10:19:32.108Z,52.54
2019-02-16T10:20:32.374Z,51.61
2019-02-16T10:21:32.585Z,51.39
2019-02-16T10:22:32.831Z,51.59
2019-02-16T10:23:33.043Z,51.59
2019-02-16T10:24:33.277Z,51.15
2019-02-16T10:25:33.704Z,51.26
2019-02-16T10:26:33.747Z,50.56
2019-02-16T10:27:33.983Z,51.98
2019-02-16T10:28:34.199Z,51.56
2019-02-16T10:29:34.433Z,50.34
2019-02-16T10:30:34.861Z,50.13
2019-02-16T10:31:34.920Z,49.82
2019-02-16T10:32:35.159Z,50.01
2019-02-16T10:33:35.460Z,49.90
2019-02-16T10:34:35.589Z,49.29
2019-02-16T10:35:36.635Z,49.69
2019-02-16T10:36:36.069Z,48.36
2019-02-16T10:37:36.337Z,47.93
2019-02-16T10:38:36.537Z,48.34
2019-02-16T10:39:36.788Z,47.93
2019-02-16T10:40:37.044Z,47.42
2019-02-16T10:41:37.250Z,48.63
2019-02-16T10:42:37.465Z,47.91
2019-02-16T10:43:37.684Z,47.30
2019-02-16T10:44:37.914Z,46.35
2019-02-16T10:45:38.170Z,45.74
2019-02-16T10:46:38.378Z,46.45
2019-02-16T10:47:38.602Z,45.64
2019-02-16T10:48:38.835Z,45.82
2019-02-16T10:49:39.122Z,45.00
2019-02-16T10:50:39.339Z,46.23
2019-02-16T10:51:39.622Z,46.33
2019-02-16T10:52:39.779Z,44.49
2019-02-16T10:53:39.989Z,44.78
2019-02-16T10:54:40.255Z,43.76
2019-02-16T10:55:40.488Z,43.55
2019-02-16T10:56:40.701Z,43.65
2019-02-16T10:57:40.964Z,43.44
2019-02-16T10:58:41.281Z,43.43
2019-02-16T10:59:41.412Z,43.73
2019-02-16T11:00:41.669Z,43.02
2019-02-16T11:01:41.881Z,42.71
2019-02-16T11:02:42.125Z,42.91
2019-02-16T11:03:42.317Z,43.30
2019-02-16T11:04:42.550Z,43.71
2019-02-16T11:05:42.805Z,43.10
2019-02-16T11:06:43.153Z,42.79
2019-02-16T11:07:43.273Z,42.59
2019-02-16T11:08:43.475Z,43.00
2019-02-16T11:09:43.721Z,42.90
2019-02-16T11:10:43.967Z,43.38
2019-02-16T11:11:45.461Z,42.97
2019-02-16T11:12:44.433Z,43.10
2019-02-16T11:13:44.640Z,43.08
2019-02-16T11:14:44.899Z,42.67
2019-02-16T11:15:45.101Z,43.18
2019-02-16T11:16:45.364Z,42.96
2019-02-16T11:17:45.795Z,42.55
2019-02-16T11:18:45.778Z,42.06
2019-02-16T11:19:46.010Z,41.85
2019-02-16T11:20:46.243Z,42.45
2019-02-16T11:21:46.479Z,42.24
2019-02-16T11:22:46.785Z,41.94
2019-02-16T11:23:46.931Z,42.14
2019-02-16T11:24:47.158Z,41.92
2019-02-16T11:25:47.408Z,41.33
2019-02-16T11:26:47.633Z,43.04
2019-02-16T11:27:47.878Z,41.71
2019-02-16T11:28:48.083Z,42.02
2019-02-16T11:29:48.322Z,41.82
2019-02-16T11:30:48.637Z,41.82
2019-02-16T11:31:48.828Z,41.61
2019-02-16T11:32:49.040Z,41.30
2019-02-16T11:33:49.239Z,41.82
2019-02-16T11:34:49.470Z,41.19
2019-02-16T11:35:49.718Z,41.30
2019-02-16T11:36:49.929Z,41.92
2019-02-16T11:37:50.157Z,41.08
2019-02-16T11:38:50.392Z,41.59
2019-02-16T11:39:50.735Z,41.19
2019-02-16T11:40:50.873Z,41.19
2019-02-16T11:41:51.089Z,41.80
2019-02-16T11:42:51.311Z,41.08
2019-02-16T11:43:51.559Z,41.89
2019-02-16T11:44:51.792Z,41.89
2019-02-16T11:45:52.044Z,41.89
2019-02-16T11:46:52.261Z,41.28
2019-02-16T11:47:52.586Z,41.59
2019-02-16T11:48:52.725Z,40.78
2019-02-16T11:49:52.960Z,40.96
2019-02-16T11:50:53.210Z,41.37
2019-02-16T11:51:53.419Z,40.45
2019-02-16T11:52:53.674Z,41.06
2019-02-16T11:53:53.874Z,41.27
2019-02-16T11:54:54.128Z,40.76
2019-02-16T11:55:54.452Z,39.51
2019-02-16T11:56:54.589Z,41.45
2019-02-16T11:57:54.825Z,40.35
2019-02-16T11:58:55.075Z,40.84
2019-02-16T11:59:55.269Z,40.84
2019-02-16T12:00:55.539Z,40.23
2019-02-16T12:01:55.748Z,40.12
2019-02-16T12:02:56.056Z,39.92
2019-02-16T12:03:56.257Z,40.74
2019-02-16T12:04:56.440Z,39.50
2019-02-16T12:05:56.685Z,39.72
2019-02-16T12:06:56.908Z,39.70
2019-02-16T12:07:57.168Z,39.50
2019-02-16T12:08:57.392Z,39.70
2019-02-16T12:09:57.601Z,39.60
2019-02-16T12:10:57.861Z,39.40
2019-02-16T12:11:58.084Z,40.31
2019-02-16T12:12:58.405Z,39.78
2019-02-16T12:13:58.543Z,39.28
2019-02-16T12:14:58.806Z,38.58
2019-02-16T12:15:59.863Z,38.76
2019-02-16T12:16:59.205Z,39.38
2019-02-16T12:17:59.446Z,39.78
2019-02-16T12:18:59.695Z,39.58
2019-02-16T12:19:59.902Z,39.69
2019-02-16T12:21:00.295Z,39.28
2019-02-16T12:22:00.341Z,39.28
2019-02-16T12:23:00.592Z,39.07
2019-02-16T12:24:00.843Z,38.76
2019-02-16T12:25:05.640Z,38.65
2019-02-16T12:26:02.323Z,39.06
2019-02-16T12:27:01.521Z,38.34
2019-02-16T12:28:01.737Z,37.63
2019-02-16T12:29:02.046Z,37.82
2019-02-16T12:30:02.201Z,38.12
2019-02-16T12:31:02.553Z,38.43
2019-02-16T12:32:02.659Z,37.82
2019-02-16T12:33:02.876Z,37.92
2019-02-16T12:34:03.147Z,38.53
2019-02-16T12:35:03.354Z,38.02
2019-02-16T12:36:03.599Z,38.12
2019-02-16T12:37:03.866Z,37.71
2019-02-16T12:38:04.021Z,37.82
2019-02-16T12:39:05.092Z,37.21
2019-02-16T12:40:04.492Z,37.30
2019-02-16T12:41:04.748Z,36.58
2019-02-16T12:42:04.964Z,37.59
2019-02-16T12:43:05.196Z,37.70
2019-02-16T12:44:05.452Z,37.29
2019-02-16T12:45:05.709Z,36.27
2019-02-16T12:46:05.935Z,37.37
2019-02-16T12:47:06.126Z,36.58
2019-02-16T12:48:06.354Z,36.56
2019-02-16T12:49:06.631Z,36.56
2019-02-16T12:50:06.810Z,36.16
2019-02-16T12:51:07.054Z,35.64
2019-02-16T12:52:07.301Z,35.75
2019-02-16T12:53:07.520Z,36.16
2019-02-16T12:54:07.871Z,36.36
2019-02-16T12:55:14.441Z,36.14